Time;durP1;ratioP1;P1;durP2;ratioP2;P2;SDS_P1;SDS_P2;PMS_P1;PMS_P2;Temp;Humidity;BMP_temperature;BMP_pressure;BME280_temperature;BME280_humidity;BME280_pressure;Samples;Min_cycle;Max_cycle;Signal;HPM_P1;HPM_P2
2021/09/30 00:02:23;;;;;;;8.82;4.78;;;;;;;;;;4877838;29;20073;-96
2021/09/30 00:04:51;;;;;;;11.02;5.35;;;;;;;;;;4921372;29;20529;-96
2021/09/30 00:07:18;;;;;;;11.57;5.20;;;;;;;;;;4891417;29;20048;-90
2021/09/30 00:09:46;;;;;;;10.20;5.45;;;;;;;;;;4886685;29;20060;-96
2021/09/30 00:12:17;;;;;;;10.30;5.10;;;;;;;;;;4883648;29;20029;-90
2021/09/30 00:14:53;;;;;;;8.75;4.72;;;;;;;;;;4884931;29;20052;-90
2021/09/30 00:17:57;;;;;;;8.50;5.28;;;;;;;;;;4898541;29;20028;-90
2021/09/30 00:45:47;;;;;;;5.82;3.92;;;;;;;;;;4939683;29;20078;-89
2021/09/30 01:19:38;;;;;;;10.93;5.68;;;;;;;;;;4961926;29;20091;-96
2021/09/30 02:20:32;;;;;;;6.68;3.60;;;;;;;;;;4959305;29;20078;-90
2021/09/30 02:23:23;;;;;;;7.85;3.40;;;;;;;;;;4942877;29;20050;-92
2021/09/30 02:26:15;;;;;;;6.78;3.70;;;;;;;;;;4943012;29;20560;-91
2021/09/30 02:58:47;;;;;;;5.45;2.70;;;;;;;;;;4959373;29;20139;-90
2021/09/30 03:01:20;;;;;;;5.53;3.22;;;;;;;;;;4941000;29;20122;-91
2021/09/30 03:03:48;;;;;;;;;;;;;;;;;;4941532;29;20038;-91
2021/09/30 03:06:14;;;;;;;5.68;2.53;;;;;;;;;;4941941;29;19907;-90
2021/09/30 03:08:44;;;;;;;7.93;2.92;;;;;;;;;;4941769;29;20073;-90
2021/09/30 03:11:11;;;;;;;6.57;3.22;;;;;;;;;;4941985;29;20186;-91
2021/09/30 03:13:39;;;;;;;4.80;2.25;;;;;;;;;;4949593;29;20041;-90
2021/09/30 03:16:38;;;;;;;4.07;2.45;;;;;;;;;;4945016;29;20062;-91
2021/09/30 03:20:26;;;;;;;5.97;2.00;;;;;;;;;;4929864;29;20046;-90
2021/09/30 03:24:29;;;;;;;4.25;1.88;;;;;;;;;;4957467;29;20114;-94
2021/09/30 03:26:55;;;;;;;2.97;1.90;;;;;;;;;;4940548;29;20496;-93
2021/09/30 03:29:22;;;;;;;3.38;1.90;;;;;;;;;;4940236;29;20088;-89
2021/09/30 03:31:49;;;;;;;5.03;1.70;;;;;;;;;;4940423;29;20507;-89
2021/09/30 03:34:16;;;;;;;4.97;1.40;;;;;;;;;;4940138;29;20035;-91
2021/09/30 03:36:42;;;;;;;4.60;1.95;;;;;;;;;;4940044;29;20031;-94
2021/09/30 03:39:13;;;;;;;3.03;1.55;;;;;;;;;;4940157;29;20393;-90
2021/09/30 03:41:43;;;;;;;3.95;1.50;;;;;;;;;;4940130;29;20118;-89
2021/09/30 03:44:10;;;;;;;4.00;1.30;;;;;;;;;;4940133;29;20472;-90
2021/09/30 03:46:36;;;;;;;4.63;1.75;;;;;;;;;;4940425;29;20027;-90
2021/09/30 03:49:09;;;;;;;1.98;1.25;;;;;;;;;;4940165;29;20043;-90
2021/09/30 03:54:28;;;;;;;2.97;1.23;;;;;;;;;;4957341;29;20287;-90
2021/09/30 03:57:07;;;;;;;1.67;0.85;;;;;;;;;;4940034;29;20027;-90
2021/09/30 03:59:34;;;;;;;9.95;1.35;;;;;;;;;;4939966;29;20070;-90
2021/09/30 04:02:02;;;;;;;2.00;1.10;;;;;;;;;;4939832;29;20118;-90
2021/09/30 04:04:32;;;;;;;2.42;1.15;;;;;;;;;;4939155;29;20030;-95
2021/09/30 04:07:02;;;;;;;3.30;1.00;;;;;;;;;;4939826;29;20034;-91
2021/09/30 04:09:28;;;;;;;1.92;1.00;;;;;;;;;;4939408;29;20054;-94
2021/09/30 04:11:59;;;;;;;2.35;0.90;;;;;;;;;;4939746;29;20028;-91
2021/09/30 04:14:25;;;;;;;2.78;1.33;;;;;;;;;;4940344;29;20098;-91
2021/09/30 04:16:52;;;;;;;3.15;1.42;;;;;;;;;;4939597;29;20031;-91
2021/09/30 04:19:20;;;;;;;1.75;0.90;;;;;;;;;;4939462;29;20032;-90
2021/09/30 04:21:47;;;;;;;4.38;1.17;;;;;;;;;;4939314;29;20031;-91
2021/09/30 04:24:13;;;;;;;3.70;1.23;;;;;;;;;;4939543;29;20043;-95
2021/09/30 04:26:40;;;;;;;3.63;1.10;;;;;;;;;;4939510;29;20029;-94
2021/09/30 04:29:06;;;;;;;5.70;1.45;;;;;;;;;;4939367;29;20055;-95
2021/09/30 04:31:33;;;;;;;3.55;0.98;;;;;;;;;;4939416;29;20063;-91
2021/09/30 04:34:00;;;;;;;2.40;1.02;;;;;;;;;;4939689;29;20070;-91
2021/09/30 04:36:26;;;;;;;4.45;1.27;;;;;;;;;;4939538;29;20055;-92
2021/09/30 04:38:52;;;;;;;2.10;0.98;;;;;;;;;;4939221;29;20027;-91
2021/09/30 04:41:20;;;;;;;2.63;1.42;;;;;;;;;;4939418;29;20469;-92
2021/09/30 05:34:25;;;;;;;2.05;1.02;;;;;;;;;;4954380;28;20035;-90
2021/09/30 05:36:51;;;;;;;4.57;1.10;;;;;;;;;;4943573;29;20079;-90
2021/09/30 05:39:17;;;;;;;2.05;0.73;;;;;;;;;;4931114;29;20031;-89
2021/09/30 05:41:48;;;;;;;2.45;1.00;;;;;;;;;;4923409;29;20027;-90
2021/09/30 05:44:16;;;;;;;3.30;0.85;;;;;;;;;;4923675;29;20028;-90
2021/09/30 05:46:52;;;;;;;2.67;0.90;;;;;;;;;;4923368;29;20032;-90
2021/09/30 05:49:18;;;;;;;2.95;0.85;;;;;;;;;;4923498;29;20515;-90
2021/09/30 05:51:44;;;;;;;6.15;0.77;;;;;;;;;;4924797;29;20374;-88
2021/09/30 05:54:10;;;;;;;2.47;1.05;;;;;;;;;;4925248;29;20692;-90
2021/09/30 05:56:36;;;;;;;2.70;0.98;;;;;;;;;;4923876;29;20023;-88
2021/09/30 05:59:02;;;;;;;3.40;1.38;;;;;;;;;;4923012;29;20064;-89
2021/09/30 06:12:10;;;;;;;5.03;1.45;;;;;;;;;;4939895;29;20071;-89
2021/09/30 06:14:38;;;;;;;;;;;;;;;;;;4925313;29;20477;-89
2021/09/30 06:17:08;;;;;;;2.65;1.13;;;;;;;;;;4927601;29;19907;-89
2021/09/30 06:19:34;;;;;;;2.30;0.98;;;;;;;;;;4925304;29;20027;-90
2021/09/30 06:22:04;;;;;;;4.43;1.58;;;;;;;;;;4939716;29;20457;-89
2021/09/30 06:24:30;;;;;;;4.70;1.35;;;;;;;;;;4922814;29;20111;-90
2021/09/30 06:26:57;;;;;;;1.83;0.73;;;;;;;;;;4921468;29;20023;-89
2021/09/30 06:29:23;;;;;;;3.20;1.23;;;;;;;;;;4922518;29;20024;-89
2021/09/30 06:31:49;;;;;;;2.25;0.90;;;;;;;;;;4922149;29;20068;-90
2021/09/30 06:34:15;;;;;;;3.90;1.00;;;;;;;;;;4910488;29;20052;-89
2021/09/30 06:36:41;;;;;;;4.10;1.42;;;;;;;;;;4903198;29;20375;-90
2021/09/30 06:39:07;;;;;;;4.47;1.67;;;;;;;;;;4903572;29;20028;-88
2021/09/30 06:41:34;;;;;;;5.15;2.10;;;;;;;;;;4902960;29;20035;-89
2021/09/30 06:44:00;;;;;;;8.15;1.38;;;;;;;;;;4902994;29;20056;-89
2021/09/30 06:46:26;;;;;;;2.72;1.30;;;;;;;;;;4903168;29;20137;-89
2021/09/30 06:48:52;;;;;;;2.75;0.98;;;;;;;;;;4903037;29;20032;-89
2021/09/30 06:51:19;;;;;;;3.20;1.15;;;;;;;;;;4903040;29;20031;-90
2021/09/30 06:53:45;;;;;;;2.65;1.00;;;;;;;;;;4919813;29;20153;-90
2021/09/30 06:56:15;;;;;;;1.95;0.73;;;;;;;;;;4919578;29;20470;-90
2021/09/30 06:58:43;;;;;;;1.85;0.80;;;;;;;;;;4903194;29;20028;-89
2021/09/30 07:01:10;;;;;;;7.90;0.90;;;;;;;;;;4902860;29;20032;-89
2021/09/30 07:03:36;;;;;;;4.28;0.80;;;;;;;;;;4902562;29;20036;-89
2021/09/30 07:06:05;;;;;;;4.00;0.77;;;;;;;;;;4902406;29;20050;-92
2021/09/30 07:09:12;;;;;;;2.30;0.93;;;;;;;;;;4902848;29;20054;-95
2021/09/30 07:15:43;;;;;;;1.70;0.70;;;;;;;;;;4729174;30;20542;-95
2021/09/30 07:18:46;;;;;;;2.70;0.88;;;;;;;;;;4736055;30;20036;-94
2021/09/30 07:39:22;;;;;;;;;;;;;;;;;;;;;
2021/09/30 07:42:24;;;;;;;1.75;0.75;;;;;;;;;;4861384;29;20040;-94
2021/09/30 07:47:55;;;;;;;1.02;0.50;;;;;;;;;;4848287;29;20041;-94
2021/09/30 08:06:31;;;;;;;4.65;0.55;;;;;;;;;;4806442;29;20035;-95
2021/09/30 08:12:06;;;;;;;3.53;0.30;;;;;;;;;;4787994;29;20062;-93
2021/09/30 08:14:33;;;;;;;1.83;0.75;;;;;;;;;;4820671;29;20049;-93
2021/09/30 08:17:20;;;;;;;1.25;0.40;;;;;;;;;;4877652;29;20131;-92
2021/09/30 08:20:22;;;;;;;;;;;;;;;;;;;;;
2021/09/30 08:25:58;;;;;;;1.20;0.20;;;;;;;;;;4912881;29;20031;-94
2021/09/30 08:31:29;;;;;;;4.15;0.50;;;;;;;;;;4927266;29;20034;-93
2021/09/30 08:37:01;;;;;;;2.45;0.30;;;;;;;;;;4879147;29;20037;-93
2021/09/30 08:40:00;;;;;;;0.47;0.10;;;;;;;;;;4920361;29;20039;-93
2021/09/30 08:58:24;;;;;;;1.42;0.30;;;;;;;;;;4819851;29;20029;-92
2021/09/30 09:00:52;;;;;;;6.22;0.43;;;;;;;;;;4917978;29;20044;-88
2021/09/30 09:03:30;;;;;;;3.03;0.60;;;;;;;;;;4919701;29;20023;-88
2021/09/30 09:05:56;;;;;;;1.67;0.38;;;;;;;;;;4919834;29;20039;-88
2021/09/30 09:08:25;;;;;;;0.70;0.22;;;;;;;;;;4919382;29;20034;-88
2021/09/30 09:10:54;;;;;;;0.40;0.20;;;;;;;;;;4919387;29;20028;-89
2021/09/30 09:13:21;;;;;;;0.98;0.30;;;;;;;;;;4919283;29;20495;-88
2021/09/30 09:15:48;;;;;;;1.50;0.30;;;;;;;;;;4921105;29;20043;-93
2021/09/30 09:18:29;;;;;;;2.75;0.70;;;;;;;;;;4920385;29;20023;-93
2021/09/30 09:21:00;;;;;;;3.42;1.85;;;;;;;;;;4920458;29;20110;-94
2021/09/30 09:23:36;;;;;;;1.20;0.40;;;;;;;;;;4921253;29;20054;-92
2021/09/30 09:26:15;;;;;;;3.30;0.40;;;;;;;;;;4920838;29;20123;-93
2021/09/30 09:29:03;;;;;;;4.15;0.55;;;;;;;;;;4920125;29;20032;-92
2021/09/30 09:31:34;;;;;;;1.40;0.40;;;;;;;;;;4919556;29;20034;-92
2021/09/30 09:34:21;;;;;;;2.28;0.52;;;;;;;;;;4919634;29;20091;-93
2021/09/30 09:36:50;;;;;;;2.55;0.50;;;;;;;;;;4919466;29;20032;-92
2021/09/30 09:39:16;;;;;;;1.95;0.50;;;;;;;;;;4919726;29;20031;-93
2021/09/30 09:42:03;;;;;;;1.45;0.43;;;;;;;;;;4919998;29;20023;-94
2021/09/30 09:47:39;;;;;;;2.28;0.40;;;;;;;;;;4893142;29;20040;-90
2021/09/30 09:50:44;;;;;;;0.98;0.32;;;;;;;;;;4895906;29;20081;-92
2021/09/30 09:53:13;;;;;;;2.20;0.40;;;;;;;;;;4843963;29;20121;-92
2021/09/30 09:55:42;;;;;;;0.85;0.38;;;;;;;;;;4876535;29;20029;-91
2021/09/30 09:58:45;;;;;;;1.90;0.40;;;;;;;;;;4915892;29;20036;-88
2021/09/30 10:01:20;;;;;;;2.88;0.60;;;;;;;;;;4919308;29;20062;-92
2021/09/30 10:03:52;;;;;;;0.57;0.30;;;;;;;;;;4922662;29;20032;-90
2021/09/30 10:06:19;;;;;;;2.88;0.50;;;;;;;;;;4922814;29;20123;-89
2021/09/30 10:08:59;;;;;;;2.15;0.38;;;;;;;;;;4923251;29;20065;-92
2021/09/30 10:11:26;;;;;;;0.32;0.10;;;;;;;;;;4923167;29;20028;-91
2021/09/30 10:13:57;;;;;;;2.47;0.10;;;;;;;;;;4922298;29;20038;-92
2021/09/30 10:16:24;;;;;;;0.98;0.25;;;;;;;;;;4922542;29;20028;-88
2021/09/30 10:18:53;;;;;;;0.75;0.20;;;;;;;;;;4922074;29;20389;-91
2021/09/30 10:21:39;;;;;;;0.60;0.20;;;;;;;;;;4922511;29;20031;-93
2021/09/30 10:24:10;;;;;;;1.40;0.20;;;;;;;;;;4922079;29;20042;-91
2021/09/30 10:26:46;;;;;;;1.75;0.13;;;;;;;;;;4922323;29;20485;-93
2021/09/30 10:29:40;;;;;;;1.20;0.30;;;;;;;;;;4922225;29;20038;-91
2021/09/30 10:32:07;;;;;;;5.15;0.30;;;;;;;;;;4922638;29;20027;-93
2021/09/30 10:37:57;;;;;;;1.00;0.10;;;;;;;;;;4919111;29;20039;-92
2021/09/30 10:40:36;;;;;;;;;;;;;;;;;;;;;
2021/09/30 10:43:22;;;;;;;1.20;0.17;;;;;;;;;;4940537;29;20036;-94
2021/09/30 10:45:48;;;;;;;0.80;0.20;;;;;;;;;;4923420;29;20071;-93
2021/09/30 10:48:23;;;;;;;0.35;0.10;;;;;;;;;;4922661;29;20118;-93
2021/09/30 10:51:16;;;;;;;1.65;0.22;;;;;;;;;;4921928;29;20035;-93
2021/09/30 10:53:42;;;;;;;;;;;;;;;;;;4919686;29;20044;-92
2021/09/30 10:56:31;;;;;;;0.85;0.22;;;;;;;;;;4922043;29;19974;-91
2021/09/30 10:59:00;;;;;;;1.85;0.30;;;;;;;;;;4922025;29;20601;-94
2021/09/30 11:01:27;;;;;;;3.55;0.20;;;;;;;;;;4922214;29;20038;-94
2021/09/30 11:04:06;;;;;;;1.50;0.20;;;;;;;;;;4922032;29;20027;-93
2021/09/30 11:06:32;;;;;;;3.25;0.30;;;;;;;;;;4921711;29;20023;-96
2021/09/30 11:09:17;;;;;;;0.40;0.20;;;;;;;;;;4922091;29;20031;-92
2021/09/30 11:11:50;;;;;;;3.50;0.30;;;;;;;;;;4921818;29;20059;-94
2021/09/30 11:14:18;;;;;;;2.28;0.10;;;;;;;;;;4921674;29;20123;-93
2021/09/30 11:17:16;;;;;;;1.73;0.30;;;;;;;;;;4921582;29;20028;-93
2021/09/30 11:19:43;;;;;;;5.25;0.38;;;;;;;;;;4892496;29;20481;-92
2021/09/30 11:22:11;;;;;;;5.32;0.40;;;;;;;;;;4921662;29;20444;-92
2021/09/30 11:24:38;;;;;;;1.88;0.30;;;;;;;;;;4923543;29;20611;-92
2021/09/30 11:27:08;;;;;;;8.00;0.55;;;;;;;;;;4921877;29;20028;-91
2021/09/30 11:29:35;;;;;;;2.58;0.60;;;;;;;;;;4921266;29;20034;-88
2021/09/30 11:32:02;;;;;;;0.60;0.20;;;;;;;;;;4921426;29;20034;-89
2021/09/30 11:34:35;;;;;;;3.40;0.45;;;;;;;;;;4920522;29;20497;-91
2021/09/30 11:37:13;;;;;;;1.33;0.40;;;;;;;;;;4921965;29;20019;-87
2021/09/30 11:39:43;;;;;;;3.33;0.30;;;;;;;;;;4921297;29;20127;-90
2021/09/30 11:42:09;;;;;;;1.23;0.40;;;;;;;;;;4937812;29;20050;-93
2021/09/30 11:44:44;;;;;;;1.65;0.40;;;;;;;;;;4918295;29;20053;-89
2021/09/30 11:47:10;;;;;;;1.98;0.35;;;;;;;;;;4902735;29;20129;-90
2021/09/30 11:49:40;;;;;;;0.82;0.30;;;;;;;;;;4902581;29;20055;-91
2021/09/30 11:52:20;;;;;;;0.60;0.17;;;;;;;;;;4902250;29;20032;-91
2021/09/30 11:54:46;;;;;;;2.40;0.38;;;;;;;;;;4902158;29;20067;-94
2021/09/30 11:57:41;;;;;;;1.95;0.30;;;;;;;;;;4902320;29;20147;-91
2021/09/30 12:00:16;;;;;;;0.63;0.20;;;;;;;;;;4881231;29;20067;-88
2021/09/30 12:03:03;;;;;;;0.68;0.32;;;;;;;;;;4902266;29;20032;-89
2021/09/30 12:05:31;;;;;;;1.08;0.30;;;;;;;;;;4902128;29;20524;-91
2021/09/30 12:08:06;;;;;;;2.13;0.22;;;;;;;;;;4901949;29;20030;-93
2021/09/30 12:10:55;;;;;;;0.52;0.30;;;;;;;;;;4915560;29;20163;-90
2021/09/30 12:13:27;;;;;;;1.48;0.55;;;;;;;;;;4902066;29;20032;-88
2021/09/30 12:16:02;;;;;;;0.90;0.30;;;;;;;;;;4918479;29;20080;-92
2021/09/30 12:18:28;;;;;;;1.42;0.40;;;;;;;;;;4901460;29;20457;-87
2021/09/30 12:20:58;;;;;;;1.00;0.30;;;;;;;;;;4901369;29;20383;-93
2021/09/30 12:23:24;;;;;;;2.08;0.25;;;;;;;;;;4901110;29;20114;-89
2021/09/30 12:25:53;;;;;;;1.50;0.40;;;;;;;;;;4900202;29;20095;-90
2021/09/30 12:28:21;;;;;;;2.15;0.30;;;;;;;;;;4902153;29;20032;-93
2021/09/30 12:30:50;;;;;;;0.88;0.20;;;;;;;;;;4901400;29;20028;-87
2021/09/30 12:33:19;;;;;;;1.73;0.40;;;;;;;;;;4901279;29;20040;-90
2021/09/30 12:35:46;;;;;;;0.95;0.20;;;;;;;;;;4900913;29;20067;-91
2021/09/30 12:38:30;;;;;;;;;;;;;;;;;;;;;
2021/09/30 12:41:05;;;;;;;5.53;0.57;;;;;;;;;;4920588;29;20036;-93
2021/09/30 12:43:49;;;;;;;1.13;0.22;;;;;;;;;;4900450;29;20064;-95
2021/09/30 12:46:18;;;;;;;17.20;0.75;;;;;;;;;;4937402;29;20087;-91
2021/09/30 12:49:04;;;;;;;4.95;0.35;;;;;;;;;;4938710;29;20016;-94
2021/09/30 12:55:15;;;;;;;1.10;0.32;;;;;;;;;;4929024;29;20043;-95
2021/09/30 12:57:59;;;;;;;0.80;0.25;;;;;;;;;;4922636;29;20032;-91
2021/09/30 13:00:56;;;;;;;1.63;0.40;;;;;;;;;;4916955;29;20036;-88
2021/09/30 13:03:29;;;;;;;3.22;0.40;;;;;;;;;;4937880;29;20035;-93
2021/09/30 13:09:18;;;;;;;3.47;0.38;;;;;;;;;;4921012;29;20047;-92
2021/09/30 13:11:53;;;;;;;5.75;0.45;;;;;;;;;;4920537;29;20480;-94
2021/09/30 13:15:05;;;;;;;2.42;0.30;;;;;;;;;;4919552;29;20070;-93
2021/09/30 13:17:26;;;;;;;0.88;0.30;;;;;;;;;;4934998;29;20027;-92
2021/09/30 13:23:18;;;;;;;0.93;0.40;;;;;;;;;;4923585;29;20020;-92
2021/09/30 13:25:45;;;;;;;1.33;0.40;;;;;;;;;;4920762;29;20031;-93
2021/09/30 13:28:11;;;;;;;0.93;0.30;;;;;;;;;;4920023;29;20028;-92
2021/09/30 13:30:37;;;;;;;2.80;0.40;;;;;;;;;;4921657;29;20087;-91
2021/09/30 13:33:07;;;;;;;0.98;0.30;;;;;;;;;;4920062;29;20024;-91
2021/09/30 13:35:39;;;;;;;1.83;0.82;;;;;;;;;;4923774;29;20048;-94
2021/09/30 13:38:05;;;;;;;1.83;0.40;;;;;;;;;;4923697;29;20028;-93
2021/09/30 13:40:32;;;;;;;3.10;0.43;;;;;;;;;;4923470;29;20457;-91
2021/09/30 13:42:58;;;;;;;2.33;0.30;;;;;;;;;;4923063;29;20059;-93
2021/09/30 13:45:25;;;;;;;0.82;0.30;;;;;;;;;;4923268;29;20028;-93
2021/09/30 13:47:54;;;;;;;1.95;0.40;;;;;;;;;;4923449;29;20031;-92
2021/09/30 13:50:26;;;;;;;2.13;0.45;;;;;;;;;;4923264;29;20027;-95
2021/09/30 13:52:53;;;;;;;2.95;0.40;;;;;;;;;;4923137;29;20385;-90
2021/09/30 13:55:22;;;;;;;1.00;0.40;;;;;;;;;;4922942;29;20130;-90
2021/09/30 13:57:49;;;;;;;1.55;0.60;;;;;;;;;;4923306;29;20114;-91
2021/09/30 14:00:26;;;;;;;3.30;0.63;;;;;;;;;;4923076;29;20103;-90
2021/09/30 14:03:03;;;;;;;1.67;0.40;;;;;;;;;;4923580;29;20393;-90
2021/09/30 14:05:29;;;;;;;2.50;0.40;;;;;;;;;;4923268;29;20036;-95
2021/09/30 14:07:58;;;;;;;1.50;0.43;;;;;;;;;;4923360;29;20054;-90
2021/09/30 14:10:32;;;;;;;5.43;0.63;;;;;;;;;;4923016;29;20070;-90
2021/09/30 14:12:58;;;;;;;1.20;0.32;;;;;;;;;;4923662;29;20477;-89
2021/09/30 14:15:24;;;;;;;1.13;0.35;;;;;;;;;;4922827;29;20036;-89
2021/09/30 14:17:51;;;;;;;2.40;0.40;;;;;;;;;;4922773;29;20031;-90
2021/09/30 14:20:17;;;;;;;0.88;0.40;;;;;;;;;;4922840;29;20035;-89
2021/09/30 14:22:44;;;;;;;1.15;0.50;;;;;;;;;;4922881;29;20031;-90
2021/09/30 14:25:18;;;;;;;1.92;0.60;;;;;;;;;;4923887;29;20028;-89
2021/09/30 14:27:45;;;;;;;1.15;0.43;;;;;;;;;;4922519;29;20039;-90
2021/09/30 14:30:14;;;;;;;1.30;0.30;;;;;;;;;;4922603;29;20028;-90
2021/09/30 14:32:40;;;;;;;1.92;0.35;;;;;;;;;;4922651;29;20489;-90
2021/09/30 14:35:07;;;;;;;0.60;0.20;;;;;;;;;;4922201;29;20409;-89
2021/09/30 14:37:38;;;;;;;2.10;0.50;;;;;;;;;;4922663;29;20031;-90
2021/09/30 14:40:07;;;;;;;1.27;0.40;;;;;;;;;;4922485;29;20111;-92
2021/09/30 14:42:33;;;;;;;1.27;0.40;;;;;;;;;;4919774;29;20114;-90
2021/09/30 14:45:00;;;;;;;4.10;0.60;;;;;;;;;;4923098;29;20114;-92
2021/09/30 14:47:26;;;;;;;0.80;0.30;;;;;;;;;;4921609;29;20074;-91
2021/09/30 14:49:53;;;;;;;4.07;0.40;;;;;;;;;;4922381;29;20362;-92
2021/09/30 14:52:19;;;;;;;1.50;0.35;;;;;;;;;;4922014;29;20031;-90
2021/09/30 14:54:46;;;;;;;0.95;0.30;;;;;;;;;;4922340;29;20045;-92
2021/09/30 14:57:12;;;;;;;1.10;0.43;;;;;;;;;;4922114;29;20050;-92
2021/09/30 14:59:39;;;;;;;0.95;0.30;;;;;;;;;;4922072;29;20054;-91
2021/09/30 15:02:05;;;;;;;1.35;0.55;;;;;;;;;;4906636;29;20123;-91
2021/09/30 15:04:31;;;;;;;1.55;0.52;;;;;;;;;;4921944;29;20059;-91
2021/09/30 15:06:58;;;;;;;1.40;0.47;;;;;;;;;;4921946;29;20130;-91
2021/09/30 15:09:25;;;;;;;2.80;0.70;;;;;;;;;;4921858;29;20031;-91
2021/09/30 15:11:51;;;;;;;2.45;0.40;;;;;;;;;;4921825;29;20036;-92
2021/09/30 15:14:18;;;;;;;1.45;0.40;;;;;;;;;;4921908;29;20485;-90
2021/09/30 15:17:10;;;;;;;0.70;0.20;;;;;;;;;;4922256;29;20023;-91
2021/09/30 15:22:24;;;;;;;2.92;0.40;;;;;;;;;;4909215;29;20020;-92
2021/09/30 15:24:51;;;;;;;1.25;0.30;;;;;;;;;;4921873;29;20036;-90
2021/09/30 15:27:17;;;;;;;0.90;0.30;;;;;;;;;;4921833;29;20024;-92
2021/09/30 15:29:45;;;;;;;1.33;0.40;;;;;;;;;;4921560;29;20079;-91
2021/09/30 15:32:12;;;;;;;3.47;0.30;;;;;;;;;;4922181;29;20115;-92
2021/09/30 15:34:38;;;;;;;1.00;0.40;;;;;;;;;;4921112;29;20047;-91
2021/09/30 15:37:05;;;;;;;4.53;0.50;;;;;;;;;;4921471;29;20546;-92
2021/09/30 15:39:31;;;;;;;1.42;0.50;;;;;;;;;;4921604;29;20024;-91
2021/09/30 15:41:58;;;;;;;1.58;0.50;;;;;;;;;;4921728;29;20110;-93
2021/09/30 15:44:24;;;;;;;0.65;0.30;;;;;;;;;;4906023;29;20123;-91
2021/09/30 15:46:51;;;;;;;1.55;0.30;;;;;;;;;;4921361;29;20036;-91
2021/09/30 15:49:17;;;;;;;3.08;0.50;;;;;;;;;;4921263;29;20091;-91
2021/09/30 15:51:43;;;;;;;1.60;0.63;;;;;;;;;;4921174;29;20026;-91
2021/09/30 15:54:12;;;;;;;2.60;1.17;;;;;;;;;;4921212;29;20077;-92
2021/09/30 15:56:39;;;;;;;1.50;0.70;;;;;;;;;;4921150;29;20024;-92
2021/09/30 15:59:06;;;;;;;2.05;0.75;;;;;;;;;;4905498;29;20541;-91
2021/09/30 16:01:33;;;;;;;1.58;0.60;;;;;;;;;;4921134;29;20111;-92
2021/09/30 16:03:59;;;;;;;1.30;0.63;;;;;;;;;;4905485;29;20548;-92
2021/09/30 16:06:26;;;;;;;1.27;0.50;;;;;;;;;;4920897;29;20500;-92
2021/09/30 16:08:53;;;;;;;5.55;0.52;;;;;;;;;;4921029;29;20035;-91
2021/09/30 16:11:20;;;;;;;3.80;1.00;;;;;;;;;;4905270;29;20038;-92
2021/09/30 16:13:47;;;;;;;2.63;0.90;;;;;;;;;;4920928;29;20082;-92
2021/09/30 16:16:16;;;;;;;3.58;1.13;;;;;;;;;;4905262;29;20130;-92
2021/09/30 16:18:45;;;;;;;4.88;1.33;;;;;;;;;;4906123;29;20099;-92
2021/09/30 16:21:12;;;;;;;3.42;1.40;;;;;;;;;;4918782;29;20367;-92
2021/09/30 16:23:39;;;;;;;4.93;1.50;;;;;;;;;;4920850;29;20024;-91
2021/09/30 16:26:06;;;;;;;2.05;0.95;;;;;;;;;;4922418;29;20028;-91
2021/09/30 16:28:32;;;;;;;1.33;0.60;;;;;;;;;;4927252;29;20063;-91
2021/09/30 16:30:59;;;;;;;1.58;0.80;;;;;;;;;;4921996;29;20087;-92
2021/09/30 16:33:27;;;;;;;0.90;0.50;;;;;;;;;;4921112;29;20035;-92
2021/09/30 16:35:55;;;;;;;1.58;0.45;;;;;;;;;;4917036;29;20063;-90
2021/09/30 16:38:22;;;;;;;1.13;0.55;;;;;;;;;;4901729;29;20025;-90
2021/09/30 16:40:51;;;;;;;1.92;0.68;;;;;;;;;;4901697;29;20043;-91
2021/09/30 16:43:18;;;;;;;3.03;0.65;;;;;;;;;;4901704;29;20028;-90
2021/09/30 16:45:44;;;;;;;4.70;0.75;;;;;;;;;;4886002;29;20083;-91
2021/09/30 16:48:11;;;;;;;5.10;0.82;;;;;;;;;;4901458;29;20024;-92
2021/09/30 16:50:38;;;;;;;3.20;0.63;;;;;;;;;;4886265;29;20040;-90
2021/09/30 16:53:05;;;;;;;4.65;0.90;;;;;;;;;;4886017;29;20035;-92
2021/09/30 16:55:32;;;;;;;1.90;0.70;;;;;;;;;;4901662;29;20044;-91
2021/09/30 16:57:58;;;;;;;2.15;0.85;;;;;;;;;;4886024;29;20520;-90
2021/09/30 17:00:26;;;;;;;3.85;1.20;;;;;;;;;;4902600;29;20032;-91
2021/09/30 17:02:52;;;;;;;6.38;0.80;;;;;;;;;;4901548;29;20063;-91
2021/09/30 17:05:20;;;;;;;9.75;1.20;;;;;;;;;;4885903;29;20038;-91
2021/09/30 17:07:47;;;;;;;5.55;0.77;;;;;;;;;;4901305;29;20080;-91
2021/09/30 17:10:17;;;;;;;1.83;0.70;;;;;;;;;;4918336;29;20032;-92
2021/09/30 17:12:45;;;;;;;5.25;0.88;;;;;;;;;;4905560;29;20063;-91
2021/09/30 17:15:14;;;;;;;2.60;0.70;;;;;;;;;;4905116;29;20036;-92
2021/09/30 17:17:42;;;;;;;1.33;0.60;;;;;;;;;;4906162;29;20157;-91
2021/09/30 17:20:10;;;;;;;2.50;0.95;;;;;;;;;;4905510;29;20450;-91
2021/09/30 17:22:37;;;;;;;1.63;0.77;;;;;;;;;;4905267;29;20556;-91
2021/09/30 17:25:04;;;;;;;3.83;0.93;;;;;;;;;;4904942;29;20469;-91
2021/09/30 17:27:31;;;;;;;3.15;0.88;;;;;;;;;;4904952;29;20024;-91
2021/09/30 17:29:57;;;;;;;9.48;0.90;;;;;;;;;;4905825;29;20381;-91
2021/09/30 17:32:25;;;;;;;2.05;0.80;;;;;;;;;;4904858;29;20028;-92
2021/09/30 17:34:51;;;;;;;2.25;0.80;;;;;;;;;;4894690;29;20150;-91
2021/09/30 17:37:17;;;;;;;3.75;0.90;;;;;;;;;;4923676;29;20020;-91
2021/09/30 17:39:45;;;;;;;10.68;1.50;;;;;;;;;;4923445;29;20038;-92
2021/09/30 17:42:12;;;;;;;2.00;0.93;;;;;;;;;;4923770;29;20028;-92
2021/09/30 17:44:38;;;;;;;11.52;1.80;;;;;;;;;;4923704;29;20031;-95
2021/09/30 17:47:06;;;;;;;5.07;1.70;;;;;;;;;;4923669;29;20027;-92
2021/09/30 17:49:33;;;;;;;7.43;1.77;;;;;;;;;;4923759;29;20541;-93
2021/09/30 17:51:59;;;;;;;3.40;1.17;;;;;;;;;;4923466;29;20032;-94
2021/09/30 17:54:25;;;;;;;7.43;1.63;;;;;;;;;;4923756;29;20389;-95
2021/09/30 17:56:51;;;;;;;5.88;1.48;;;;;;;;;;4923365;29;20028;-93
2021/09/30 17:59:18;;;;;;;4.35;1.20;;;;;;;;;;4923338;29;20043;-91
2021/09/30 18:01:44;;;;;;;6.07;1.83;;;;;;;;;;4923511;29;20028;-91
2021/09/30 18:04:11;;;;;;;1.95;0.82;;;;;;;;;;4923560;29;20036;-93
2021/09/30 18:06:37;;;;;;;13.32;1.27;;;;;;;;;;4923443;29;20567;-95
2021/09/30 18:09:04;;;;;;;2.60;0.93;;;;;;;;;;4923474;29;20054;-95
2021/09/30 18:11:30;;;;;;;2.25;0.82;;;;;;;;;;4923290;29;20028;-94
2021/09/30 18:13:56;;;;;;;2.33;0.80;;;;;;;;;;4923112;29;20513;-94
2021/09/30 18:16:23;;;;;;;1.98;0.95;;;;;;;;;;4922842;29;20027;-95
2021/09/30 18:18:51;;;;;;;6.72;0.93;;;;;;;;;;4922904;29;20031;-96
2021/09/30 18:21:19;;;;;;;3.33;1.25;;;;;;;;;;4923431;29;20032;-96
2021/09/30 18:23:48;;;;;;;2.25;1.08;;;;;;;;;;4922198;29;20031;-96
2021/09/30 18:26:19;;;;;;;1.25;0.68;;;;;;;;;;4923360;29;20115;-93
2021/09/30 18:28:53;;;;;;;5.40;1.38;;;;;;;;;;4923128;29;20043;-93
2021/09/30 18:31:21;;;;;;;2.90;0.80;;;;;;;;;;4923161;29;20123;-94
2021/09/30 18:33:48;;;;;;;4.78;1.27;;;;;;;;;;4923617;29;20456;-95
2021/09/30 18:36:16;;;;;;;3.15;1.13;;;;;;;;;;4923415;29;20047;-96
2021/09/30 18:38:42;;;;;;;2.78;0.98;;;;;;;;;;4924119;29;20538;-96
2021/09/30 18:41:10;;;;;;;1.50;0.77;;;;;;;;;;4922880;29;20174;-96
2021/09/30 18:43:37;;;;;;;2.65;0.93;;;;;;;;;;4922613;29;20027;-92
2021/09/30 18:46:04;;;;;;;2.45;0.85;;;;;;;;;;4922832;29;20031;-94
2021/09/30 18:48:30;;;;;;;1.67;0.80;;;;;;;;;;4922830;29;20027;-94
2021/09/30 18:50:56;;;;;;;4.70;0.90;;;;;;;;;;4922549;29;20035;-96
2021/09/30 18:53:22;;;;;;;10.30;0.80;;;;;;;;;;4922413;29;20024;-93
2021/09/30 18:55:49;;;;;;;2.58;1.00;;;;;;;;;;4922831;29;20122;-94
2021/09/30 18:58:15;;;;;;;2.53;1.20;;;;;;;;;;4922392;29;20201;-93
2021/09/30 19:00:41;;;;;;;9.60;2.55;;;;;;;;;;4922200;29;20115;-95
2021/09/30 19:03:08;;;;;;;12.55;3.92;;;;;;;;;;4927992;29;20032;-90
2021/09/30 19:05:34;;;;;;;12.82;4.15;;;;;;;;;;4929234;29;20027;-92
2021/09/30 19:08:08;;;;;;;8.68;2.13;;;;;;;;;;4922433;29;20027;-95
2021/09/30 19:10:33;;;;;;;;;;;;;;;;;;4923150;29;20024;-95
2021/09/30 19:13:00;;;;;;;9.15;1.55;;;;;;;;;;4922468;29;19930;-93
2021/09/30 19:15:26;;;;;;;5.30;1.80;;;;;;;;;;4922674;29;20493;-92
2021/09/30 19:17:53;;;;;;;14.40;1.20;;;;;;;;;;4922692;29;20477;-94
2021/09/30 19:20:19;;;;;;;3.30;1.58;;;;;;;;;;4923112;29;20028;-93
2021/09/30 19:22:46;;;;;;;6.97;1.42;;;;;;;;;;4923674;29;20032;-95
2021/09/30 19:25:13;;;;;;;17.08;3.03;;;;;;;;;;4922636;29;20027;-94
2021/09/30 19:27:39;;;;;;;17.45;2.72;;;;;;;;;;4924006;29;20036;-94
2021/09/30 19:30:06;;;;;;;11.95;3.22;;;;;;;;;;4922310;29;20020;-93
2021/09/30 19:32:33;;;;;;;12.38;3.67;;;;;;;;;;4922200;29;20036;-91
2021/09/30 19:34:59;;;;;;;24.58;7.28;;;;;;;;;;4920644;29;20064;-89
2021/09/30 19:37:26;;;;;;;10.60;3.60;;;;;;;;;;4921413;29;20082;-90
2021/09/30 19:39:55;;;;;;;11.35;4.22;;;;;;;;;;4921231;29;20032;-89
2021/09/30 19:42:21;;;;;;;14.55;3.40;;;;;;;;;;4921348;29;20477;-90
2021/09/30 19:44:47;;;;;;;20.42;5.18;;;;;;;;;;4921217;29;20481;-89
2021/09/30 19:47:14;;;;;;;14.13;4.97;;;;;;;;;;4921153;29;20020;-91
2021/09/30 19:49:40;;;;;;;13.63;4.68;;;;;;;;;;4921155;29;20036;-89
2021/09/30 19:52:07;;;;;;;17.42;6.07;;;;;;;;;;4921042;29;20031;-89
2021/09/30 19:54:33;;;;;;;12.60;5.53;;;;;;;;;;4920853;29;20039;-90
2021/09/30 19:56:59;;;;;;;12.35;5.35;;;;;;;;;;4921167;29;20031;-89
2021/09/30 19:59:25;;;;;;;9.43;4.55;;;;;;;;;;4921177;29;20032;-89
2021/09/30 20:01:51;;;;;;;20.92;7.05;;;;;;;;;;4920582;29;20028;-88
2021/09/30 20:04:18;;;;;;;15.95;6.25;;;;;;;;;;4920555;29;20040;-90
2021/09/30 20:06:44;;;;;;;15.88;5.47;;;;;;;;;;4921010;29;20489;-90